createdAt,value
2019-05-18T00:02:00.884Z,22.97
2019-05-18T00:04:32.042Z,22.96
2019-05-18T00:07:03.166Z,22.95
2019-05-18T00:09:34.206Z,22.92
2019-05-18T00:12:05.290Z,22.92
2019-05-18T00:14:36.393Z,22.86
2019-05-18T00:17:12.831Z,22.85
2019-05-18T00:19:40.283Z,22.84
2019-05-18T00:22:11.239Z,22.83
2019-05-18T00:24:42.465Z,22.83
2019-05-18T00:27:13.387Z,22.84
2019-05-18T00:29:44.426Z,22.82
2019-05-18T00:32:15.360Z,22.80
2019-05-18T00:34:46.328Z,22.80
2019-05-18T00:37:17.263Z,22.77
2019-05-18T00:39:48.256Z,22.76
2019-05-18T00:42:19.252Z,22.73
2019-05-18T00:44:50.400Z,22.72
2019-05-18T00:47:21.425Z,22.68
2019-05-18T00:49:52.478Z,22.67
2019-05-18T00:52:23.498Z,22.64
2019-05-18T00:54:54.431Z,22.63
2019-05-18T00:57:25.508Z,22.59
2019-05-18T00:59:56.634Z,22.58
2019-05-18T01:02:27.603Z,22.56
2019-05-18T01:04:58.626Z,22.54
2019-05-18T01:07:29.970Z,22.52
2019-05-18T01:10:01.081Z,22.52
2019-05-18T01:12:32.122Z,22.49
2019-05-18T01:15:03.217Z,22.46
2019-05-18T01:17:34.399Z,22.44
2019-05-18T01:20:08.307Z,22.40
2019-05-18T01:22:39.424Z,22.37
2019-05-18T01:25:10.446Z,22.33
2019-05-18T01:27:42.563Z,22.29
2019-05-18T01:30:13.600Z,22.27
2019-05-18T01:32:44.654Z,22.25
2019-05-18T01:35:15.676Z,22.22
2019-05-18T01:37:46.709Z,22.22
2019-05-18T01:40:17.648Z,22.20
2019-05-18T01:42:48.791Z,22.17
2019-05-18T01:45:19.999Z,22.15
2019-05-18T01:47:51.008Z,22.12
2019-05-18T01:50:22.011Z,22.09
2019-05-18T01:52:53.185Z,22.07
2019-05-18T01:55:24.276Z,22.06
2019-05-18T01:57:55.248Z,22.05
2019-05-18T02:00:27.372Z,22.02
2019-05-18T02:02:58.456Z,22.00
2019-05-18T02:05:29.534Z,21.98
2019-05-18T02:08:00.559Z,21.96
2019-05-18T02:10:31.810Z,21.94
2019-05-18T02:13:03.011Z,21.94
2019-05-18T02:15:34.164Z,21.93
2019-05-18T02:18:05.121Z,21.90
2019-05-18T02:20:36.537Z,21.89
2019-05-18T02:23:07.986Z,21.86
2019-05-18T02:25:38.990Z,21.84
2019-05-18T02:28:10.060Z,21.82
2019-05-18T02:30:42.173Z,21.82
2019-05-18T02:33:13.144Z,21.79
2019-05-18T02:35:44.182Z,21.79
2019-05-18T02:38:16.592Z,21.80
2019-05-18T02:40:47.778Z,21.76
2019-05-18T02:43:18.741Z,21.73
2019-05-18T02:45:49.732Z,21.76
2019-05-18T02:48:20.859Z,21.76
2019-05-18T02:50:52.041Z,21.77
2019-05-18T02:53:23.070Z,21.80
2019-05-18T02:55:54.113Z,21.81
2019-05-18T02:58:25.074Z,21.85
2019-05-18T03:00:56.353Z,21.83
2019-05-18T03:03:27.386Z,21.84
2019-05-18T03:05:58.418Z,21.85
2019-05-18T03:08:29.482Z,21.91
2019-05-18T03:11:00.714Z,22.05
2019-05-18T03:13:31.966Z,22.25
2019-05-18T03:16:03.198Z,22.53
2019-05-18T03:18:34.201Z,22.81
2019-05-18T03:21:05.247Z,23.03
2019-05-18T03:23:36.314Z,23.20
2019-05-18T03:26:07.369Z,23.30
2019-05-18T03:28:38.434Z,23.37
2019-05-18T03:31:09.598Z,23.51
2019-05-18T03:33:40.973Z,23.68
2019-05-18T03:36:11.935Z,23.83
2019-05-18T03:38:42.986Z,23.93
2019-05-18T03:41:14.181Z,24.09
2019-05-18T03:43:45.141Z,24.25
2019-05-18T03:46:16.111Z,24.44
2019-05-18T03:48:47.420Z,24.59
2019-05-18T03:51:18.400Z,24.66
2019-05-18T03:53:49.540Z,24.64
2019-05-18T03:56:20.605Z,24.59
2019-05-18T03:58:51.541Z,24.54
2019-05-18T04:01:22.740Z,24.50
2019-05-18T04:03:53.875Z,24.48
2019-05-18T04:06:25.026Z,24.41
2019-05-18T04:08:56.143Z,24.31
2019-05-18T04:11:27.496Z,24.17
2019-05-18T04:13:58.435Z,24.00
2019-05-18T04:16:29.571Z,23.84
2019-05-18T04:19:00.687Z,23.73
2019-05-18T04:21:31.928Z,23.59
2019-05-18T04:24:02.941Z,23.48
2019-05-18T04:26:34.012Z,23.37
2019-05-18T04:29:05.276Z,23.29
2019-05-18T04:31:36.498Z,23.29
2019-05-18T04:34:07.489Z,23.25
2019-05-18T04:36:38.594Z,23.21
2019-05-18T04:39:09.750Z,23.19
2019-05-18T04:41:40.891Z,23.17
2019-05-18T04:44:12.022Z,23.15
2019-05-18T04:46:43.219Z,23.15
2019-05-18T04:49:14.308Z,23.11
2019-05-18T04:51:45.504Z,23.08
2019-05-18T04:54:16.442Z,23.08
2019-05-18T04:56:47.464Z,23.08
2019-05-18T04:59:18.502Z,23.14
2019-05-18T05:01:49.577Z,23.19
2019-05-18T05:04:20.657Z,23.18
2019-05-18T05:06:51.792Z,23.20
2019-05-18T05:09:23.047Z,23.22
2019-05-18T05:11:54.312Z,23.22
2019-05-18T05:14:25.501Z,23.23
2019-05-18T05:16:56.907Z,23.21
2019-05-18T05:19:27.860Z,23.24
2019-05-18T05:21:59.068Z,23.23
2019-05-18T05:24:30.162Z,23.26
2019-05-18T05:27:03.233Z,23.31
2019-05-18T05:29:34.255Z,23.34
2019-05-18T05:32:05.403Z,23.36
2019-05-18T05:34:36.582Z,23.44
2019-05-18T05:37:07.866Z,23.46
2019-05-18T05:39:38.901Z,23.50
2019-05-18T05:42:09.904Z,23.56
2019-05-18T05:44:40.907Z,23.67
2019-05-18T05:47:11.986Z,23.82
2019-05-18T05:49:42.984Z,23.93
2019-05-18T05:52:15.335Z,24.01
2019-05-18T05:54:46.467Z,24.11
2019-05-18T05:57:17.554Z,24.15
2019-05-18T05:59:48.601Z,24.21
2019-05-18T06:02:20.732Z,24.14
2019-05-18T06:04:51.861Z,24.09
2019-05-18T06:07:22.921Z,24.10
2019-05-18T06:09:54.160Z,24.02
2019-05-18T06:12:25.390Z,23.97
2019-05-18T06:14:56.750Z,23.92
2019-05-18T06:17:27.878Z,23.99
2019-05-18T06:19:58.967Z,24.00
2019-05-18T06:22:30.103Z,24.06
2019-05-18T06:25:01.214Z,24.20
2019-05-18T06:27:32.636Z,24.26
2019-05-18T06:30:04.136Z,24.37
2019-05-18T06:32:35.287Z,24.45
2019-05-18T06:35:06.347Z,24.50
2019-05-18T06:37:37.659Z,24.56
2019-05-18T06:40:09.765Z,24.62
2019-05-18T06:42:40.834Z,24.68
2019-05-18T06:45:12.035Z,24.76
2019-05-18T06:47:43.186Z,24.83
2019-05-18T06:50:14.415Z,24.91
2019-05-18T06:52:45.910Z,25.00
2019-05-18T06:55:17.146Z,25.11
2019-05-18T06:57:48.033Z,25.13
2019-05-18T07:00:19.163Z,25.23
2019-05-18T07:02:50.337Z,25.32
2019-05-18T07:05:21.793Z,25.38
2019-05-18T07:07:52.966Z,25.57
2019-05-18T07:10:24.153Z,25.75
2019-05-18T07:12:55.499Z,26.15
2019-05-18T07:15:26.980Z,26.47
2019-05-18T07:17:58.229Z,26.83
2019-05-18T07:20:29.451Z,27.12
2019-05-18T07:23:00.865Z,27.46
2019-05-18T07:25:32.064Z,27.83
2019-05-18T07:28:04.437Z,28.12
2019-05-18T07:30:35.549Z,28.40
2019-05-18T07:33:06.839Z,28.64
2019-05-18T07:35:37.828Z,29.03
2019-05-18T07:38:08.973Z,29.24
2019-05-18T07:40:40.239Z,29.22
2019-05-18T07:43:11.400Z,29.22
2019-05-18T07:45:42.429Z,29.11
2019-05-18T07:48:13.416Z,29.16
2019-05-18T07:50:45.171Z,29.28
2019-05-18T07:53:16.326Z,29.22
2019-05-18T07:55:47.420Z,29.26
2019-05-18T07:58:18.740Z,29.27
2019-05-18T08:00:49.813Z,29.39
2019-05-18T08:03:20.986Z,29.44
2019-05-18T08:05:51.971Z,29.42
2019-05-18T08:08:22.990Z,29.27
2019-05-18T08:10:54.161Z,29.23
2019-05-18T08:13:25.297Z,29.14
2019-05-18T08:15:56.481Z,29.01
2019-05-18T08:18:27.724Z,28.85
2019-05-18T08:20:58.825Z,28.82
2019-05-18T08:23:29.864Z,28.66
2019-05-18T08:26:00.970Z,28.61
2019-05-18T08:28:32.398Z,28.51
2019-05-18T08:31:03.634Z,28.44
2019-05-18T08:33:34.751Z,28.29
2019-05-18T08:36:07.048Z,28.18
2019-05-18T08:38:38.216Z,28.16
2019-05-18T08:41:09.343Z,28.12
2019-05-18T08:43:40.598Z,28.20
2019-05-18T08:46:11.830Z,28.14
2019-05-18T08:48:42.794Z,28.11
2019-05-18T08:51:13.901Z,28.12
2019-05-18T08:53:46.189Z,28.11
2019-05-18T08:56:17.300Z,28.16
2019-05-18T08:58:48.414Z,28.25
2019-05-18T09:01:19.565Z,28.23
2019-05-18T09:03:50.725Z,28.27
2019-05-18T09:06:21.839Z,28.28
2019-05-18T09:08:53.056Z,28.27
2019-05-18T09:11:24.292Z,28.24
2019-05-18T09:13:55.710Z,28.24
2019-05-18T09:16:27.090Z,28.26
2019-05-18T09:18:58.329Z,28.21
2019-05-18T09:21:29.795Z,28.29
2019-05-18T09:24:01.007Z,28.35
2019-05-18T09:26:32.029Z,28.32
2019-05-18T09:29:03.036Z,28.28
2019-05-18T09:31:34.167Z,28.31
2019-05-18T09:34:05.639Z,28.37
2019-05-18T09:36:36.627Z,28.38
2019-05-18T09:39:07.863Z,28.40
2019-05-18T09:41:38.988Z,28.40
2019-05-18T09:44:10.168Z,28.45
2019-05-18T09:46:41.324Z,28.41
2019-05-18T09:49:12.485Z,28.41
2019-05-18T09:51:43.678Z,28.48
2019-05-18T09:54:14.996Z,28.48
2019-05-18T09:56:46.204Z,28.50
2019-05-18T09:59:17.406Z,28.52
2019-05-18T10:01:48.661Z,28.53
2019-05-18T10:04:19.817Z,28.56
2019-05-18T10:06:52.544Z,28.47
2019-05-18T10:09:23.807Z,28.47
2019-05-18T10:11:55.194Z,28.55
2019-05-18T10:14:26.455Z,28.62
2019-05-18T10:16:57.460Z,28.71
2019-05-18T10:19:28.676Z,28.72
2019-05-18T10:21:59.821Z,28.78
2019-05-18T10:24:30.887Z,28.77
2019-05-18T10:27:03.084Z,28.81
2019-05-18T10:29:34.151Z,28.77
2019-05-18T10:32:05.208Z,28.76
2019-05-18T10:34:36.496Z,28.84
2019-05-18T10:37:07.525Z,28.91
2019-05-18T10:39:38.911Z,28.94
2019-05-18T10:42:10.012Z,28.95
2019-05-18T10:44:41.381Z,28.96
2019-05-18T10:47:13.977Z,28.95
2019-05-18T10:49:45.137Z,28.97
2019-05-18T10:52:16.457Z,28.98
2019-05-18T10:54:47.639Z,28.90
2019-05-18T10:57:18.717Z,28.89
2019-05-18T10:59:49.873Z,28.89
2019-05-18T11:02:20.993Z,28.88
2019-05-18T11:04:52.384Z,28.82
2019-05-18T11:07:29.201Z,28.75
2019-05-18T11:10:09.152Z,28.78
2019-05-18T11:12:46.477Z,28.76
2019-05-18T11:15:24.144Z,28.69
2019-05-18T11:17:55.268Z,28.74
2019-05-18T11:20:26.462Z,28.63
2019-05-18T11:22:57.479Z,28.67
2019-05-18T11:25:28.436Z,28.67
2019-05-18T11:27:59.454Z,28.64
2019-05-18T11:30:30.523Z,28.70
2019-05-18T11:33:01.683Z,28.77
2019-05-18T11:35:33.185Z,28.78
2019-05-18T11:38:04.665Z,28.75
2019-05-18T11:40:36.011Z,28.77
2019-05-18T11:43:08.087Z,28.70
2019-05-18T11:45:39.288Z,28.75
2019-05-18T11:48:10.518Z,28.69
2019-05-18T11:50:41.555Z,28.74
2019-05-18T11:53:12.590Z,28.73
2019-05-18T11:55:43.575Z,28.81
2019-05-18T11:58:14.883Z,28.87
2019-05-18T12:00:46.053Z,28.83
2019-05-18T12:03:17.248Z,28.88
2019-05-18T12:05:48.563Z,28.91
2019-05-18T12:08:19.676Z,28.89
2019-05-18T12:10:52.223Z,28.93
2019-05-18T12:13:23.540Z,28.85
2019-05-18T12:15:55.055Z,28.78
2019-05-18T12:18:26.107Z,28.77
2019-05-18T12:20:57.159Z,28.82
2019-05-18T12:23:28.174Z,28.82
2019-05-18T12:25:59.346Z,28.78
2019-05-18T12:28:31.539Z,28.79
2019-05-18T12:31:02.733Z,28.77
2019-05-18T12:33:34.049Z,28.66
2019-05-18T12:36:05.373Z,28.61
2019-05-18T12:38:36.385Z,28.67
2019-05-18T12:41:10.216Z,28.69
2019-05-18T12:43:41.550Z,28.61
2019-05-18T12:46:12.868Z,28.69
2019-05-18T12:48:45.476Z,28.75
2019-05-18T12:51:22.174Z,28.76
2019-05-18T12:53:54.009Z,28.75
2019-05-18T12:56:26.103Z,28.75
2019-05-18T12:58:57.331Z,28.78
2019-05-18T13:01:28.404Z,28.81
2019-05-18T13:03:59.659Z,28.78
2019-05-18T13:06:31.993Z,28.76
2019-05-18T13:09:04.437Z,28.76
2019-05-18T13:11:35.663Z,28.76
2019-05-18T13:14:06.732Z,28.73
2019-05-18T13:16:37.981Z,28.74
2019-05-18T13:19:08.872Z,28.73
2019-05-18T13:21:40.091Z,28.70
2019-05-18T13:24:11.069Z,28.71
2019-05-18T13:26:42.343Z,28.68
2019-05-18T13:29:13.600Z,28.68
2019-05-18T13:31:44.714Z,28.67
2019-05-18T13:34:15.924Z,28.67
2019-05-18T13:36:47.623Z,28.66
2019-05-18T13:39:18.643Z,28.67
2019-05-18T13:41:49.826Z,28.66
2019-05-18T13:44:20.924Z,28.64
2019-05-18T13:46:52.308Z,28.65
2019-05-18T13:49:23.355Z,28.63
2019-05-18T13:51:54.401Z,28.62
2019-05-18T13:54:25.453Z,28.63
2019-05-18T13:56:56.640Z,28.60
2019-05-18T13:59:27.636Z,28.60
2019-05-18T14:01:58.702Z,28.61
2019-05-18T14:04:29.819Z,28.62
2019-05-18T14:07:00.993Z,28.61
2019-05-18T14:09:31.926Z,28.58
2019-05-18T14:12:02.995Z,28.60
2019-05-18T14:14:34.128Z,28.60
2019-05-18T14:17:05.505Z,28.57
2019-05-18T14:19:36.612Z,28.57
2019-05-18T14:22:08.084Z,28.55
2019-05-18T14:24:39.374Z,28.53
2019-05-18T14:27:10.813Z,28.52
2019-05-18T14:29:41.822Z,28.51
2019-05-18T14:32:13.082Z,28.54
2019-05-18T14:34:44.503Z,28.53
2019-05-18T14:37:15.487Z,28.52
2019-05-18T14:39:46.432Z,28.51
2019-05-18T14:42:17.646Z,28.52
2019-05-18T14:44:48.920Z,28.49
2019-05-18T14:47:19.998Z,28.47
2019-05-18T14:49:51.019Z,28.46
2019-05-18T14:52:22.124Z,28.46
2019-05-18T14:54:53.290Z,28.46
2019-05-18T14:57:25.763Z,28.46
2019-05-18T14:59:57.028Z,28.45
2019-05-18T15:02:28.196Z,28.44
2019-05-18T15:04:59.305Z,28.42
2019-05-18T15:07:30.381Z,28.41
2019-05-18T15:10:01.434Z,28.40
2019-05-18T15:12:32.579Z,28.37
2019-05-18T15:15:05.427Z,28.35
2019-05-18T15:17:36.893Z,28.33
2019-05-18T15:20:09.378Z,28.29
2019-05-18T15:22:40.686Z,28.27
2019-05-18T15:25:11.834Z,28.23
2019-05-18T15:27:42.808Z,28.21
2019-05-18T15:30:13.840Z,28.20
2019-05-18T15:32:45.037Z,28.18
2019-05-18T15:35:16.064Z,28.15
2019-05-18T15:37:47.266Z,28.13
2019-05-18T15:40:18.368Z,28.11
2019-05-18T15:42:49.746Z,28.09
2019-05-18T15:45:21.003Z,28.08
2019-05-18T15:47:52.950Z,28.07
2019-05-18T15:50:23.985Z,28.05
2019-05-18T15:52:55.171Z,28.03
2019-05-18T15:55:26.192Z,27.99
2019-05-18T15:57:57.559Z,27.96
2019-05-18T16:00:28.722Z,27.92
2019-05-18T16:02:59.792Z,27.89
2019-05-18T16:05:30.946Z,27.84
2019-05-18T16:08:02.201Z,27.81
2019-05-18T16:10:33.827Z,27.78
2019-05-18T16:13:04.875Z,27.76
2019-05-18T16:15:36.103Z,27.73
2019-05-18T16:18:07.334Z,27.66
2019-05-18T16:20:38.498Z,27.64
2019-05-18T16:23:09.767Z,27.61
2019-05-18T16:25:40.798Z,27.59
2019-05-18T16:28:12.056Z,27.53
2019-05-18T16:30:43.251Z,27.50
2019-05-18T16:33:14.601Z,27.46
2019-05-18T16:35:45.587Z,27.45
2019-05-18T16:38:16.704Z,27.41
2019-05-18T16:40:47.834Z,27.38
2019-05-18T16:43:19.988Z,27.36
2019-05-18T16:45:51.178Z,27.33
2019-05-18T16:48:22.271Z,27.30
2019-05-18T16:50:53.368Z,27.27
2019-05-18T16:53:24.436Z,27.24
2019-05-18T16:55:55.487Z,27.21
2019-05-18T16:58:28.240Z,27.18
2019-05-18T17:00:59.502Z,27.16
2019-05-18T17:03:30.565Z,27.13
2019-05-18T17:06:01.968Z,27.10
2019-05-18T17:08:33.220Z,27.06
2019-05-18T17:11:04.243Z,27.02
2019-05-18T17:13:35.348Z,27.00
2019-05-18T17:16:06.560Z,26.96
2019-05-18T17:18:37.958Z,26.93
2019-05-18T17:21:09.086Z,26.91
2019-05-18T17:23:40.177Z,26.87
2019-05-18T17:26:11.247Z,26.84
2019-05-18T17:28:42.553Z,26.82
2019-05-18T17:31:13.837Z,26.79
2019-05-18T17:33:45.003Z,26.76
2019-05-18T17:36:19.614Z,26.74
2019-05-18T17:38:50.045Z,26.70
2019-05-18T17:41:21.257Z,26.68
2019-05-18T17:43:52.763Z,26.64
2019-05-18T17:46:23.933Z,26.61
2019-05-18T17:48:55.065Z,26.57
2019-05-18T17:51:27.535Z,26.55
2019-05-18T17:53:58.863Z,26.53
2019-05-18T17:56:30.026Z,26.48
2019-05-18T17:59:01.355Z,26.46
2019-05-18T18:01:32.286Z,26.43
2019-05-18T18:04:03.496Z,26.40
2019-05-18T18:06:35.011Z,26.37
2019-05-18T18:09:07.863Z,26.34
2019-05-18T18:11:38.975Z,26.31
2019-05-18T18:14:10.339Z,26.29
2019-05-18T18:16:41.650Z,26.23
2019-05-18T18:19:12.987Z,26.21
2019-05-18T18:21:44.070Z,26.16
2019-05-18T18:24:15.304Z,26.15
2019-05-18T18:26:46.571Z,26.13
2019-05-18T18:29:18.829Z,26.10
2019-05-18T18:31:49.918Z,26.06
2019-05-18T18:34:21.156Z,26.04
2019-05-18T18:36:52.593Z,26.02
2019-05-18T18:39:23.637Z,25.98
2019-05-18T18:41:54.802Z,25.96
2019-05-18T18:44:26.055Z,25.93
2019-05-18T18:46:57.274Z,25.88
2019-05-18T18:49:28.623Z,25.86
2019-05-18T18:51:59.662Z,25.83
2019-05-18T18:54:31.080Z,25.80
2019-05-18T18:57:02.402Z,25.75
2019-05-18T18:59:33.510Z,25.72
2019-05-18T19:02:04.616Z,25.69
2019-05-18T19:04:35.620Z,25.66
2019-05-18T19:07:09.090Z,25.63
2019-05-18T19:09:39.752Z,25.61
2019-05-18T19:12:11.190Z,25.58
2019-05-18T19:14:42.385Z,25.54
2019-05-18T19:17:14.246Z,25.50
2019-05-18T19:19:45.822Z,25.46
2019-05-18T19:22:17.037Z,25.42
2019-05-18T19:24:48.281Z,25.39
2019-05-18T19:27:20.588Z,25.36
2019-05-18T19:29:51.706Z,25.35
2019-05-18T19:32:22.818Z,25.28
2019-05-18T19:34:53.882Z,25.25
2019-05-18T19:37:26.470Z,25.21
2019-05-18T19:39:57.988Z,25.19
2019-05-18T19:42:29.043Z,25.14
2019-05-18T19:45:00.342Z,25.12
2019-05-18T19:47:31.529Z,25.07
2019-05-18T19:50:02.865Z,25.02
2019-05-18T19:52:34.286Z,24.98
2019-05-18T19:55:07.056Z,24.94
2019-05-18T19:57:40.079Z,24.91
2019-05-18T20:00:11.324Z,24.88
2019-05-18T20:02:42.468Z,24.84
2019-05-18T20:05:13.659Z,24.80
2019-05-18T20:07:44.973Z,24.76
2019-05-18T20:10:16.110Z,24.74
2019-05-18T20:12:47.963Z,24.70
2019-05-18T20:15:19.272Z,24.65
2019-05-18T20:17:50.591Z,24.64
2019-05-18T20:20:21.790Z,24.59
2019-05-18T20:22:52.969Z,24.57
2019-05-18T20:25:24.197Z,24.55
2019-05-18T20:27:55.244Z,24.51
2019-05-18T20:30:26.563Z,24.48
2019-05-18T20:32:57.724Z,24.46
2019-05-18T20:35:28.916Z,24.42
2019-05-18T20:38:00.149Z,24.37
2019-05-18T20:40:31.423Z,24.34
2019-05-18T20:43:02.855Z,24.31
2019-05-18T20:45:35.438Z,24.27
2019-05-18T20:48:06.775Z,24.24
2019-05-18T20:50:38.049Z,24.21
2019-05-18T20:53:09.275Z,24.17
2019-05-18T20:55:40.444Z,24.15
2019-05-18T20:58:11.517Z,24.13
2019-05-18T21:00:42.526Z,24.10
2019-05-18T21:03:13.680Z,24.08
2019-05-18T21:05:45.920Z,24.04
2019-05-18T21:08:17.329Z,24.01
2019-05-18T21:10:48.504Z,23.97
2019-05-18T21:13:19.619Z,23.93
2019-05-18T21:15:51.820Z,23.90
2019-05-18T21:18:23.037Z,23.86
2019-05-18T21:20:54.281Z,23.85
2019-05-18T21:23:25.204Z,23.82
2019-05-18T21:25:56.325Z,23.80
2019-05-18T21:28:27.255Z,23.75
2019-05-18T21:30:58.491Z,23.71
2019-05-18T21:33:29.542Z,23.67
2019-05-18T21:36:02.636Z,23.63
2019-05-18T21:38:33.904Z,23.59
2019-05-18T21:41:04.986Z,23.57
2019-05-18T21:43:36.276Z,23.53
2019-05-18T21:46:07.408Z,23.50
2019-05-18T21:48:38.656Z,23.48
2019-05-18T21:51:09.789Z,23.42
2019-05-18T21:53:40.744Z,23.38
2019-05-18T21:56:11.988Z,23.35
2019-05-18T21:58:43.072Z,23.32
2019-05-18T22:01:14.262Z,23.29
2019-05-18T22:03:48.145Z,23.26
2019-05-18T22:06:18.230Z,23.25
2019-05-18T22:08:49.269Z,23.22
2019-05-18T22:11:21.390Z,23.19
2019-05-18T22:13:52.727Z,23.15
2019-05-18T22:16:23.973Z,23.12
2019-05-18T22:18:55.319Z,23.07
2019-05-18T22:21:26.513Z,23.03
2019-05-18T22:23:57.983Z,23.00
2019-05-18T22:26:29.262Z,22.98
2019-05-18T22:29:00.207Z,22.93
2019-05-18T22:31:31.318Z,22.92
2019-05-18T22:34:02.672Z,22.90
2019-05-18T22:36:33.917Z,22.90
2019-05-18T22:39:06.778Z,22.87
2019-05-18T22:41:37.877Z,22.88
2019-05-18T22:44:09.168Z,22.85
2019-05-18T22:46:40.166Z,22.83
2019-05-18T22:49:11.311Z,22.77
2019-05-18T22:51:42.470Z,22.76
2019-05-18T22:54:13.628Z,22.75
2019-05-18T22:56:44.781Z,22.72
2019-05-18T22:59:15.798Z,22.69
2019-05-18T23:01:46.886Z,22.67
2019-05-18T23:04:17.912Z,22.64
2019-05-18T23:06:48.956Z,22.63
2019-05-18T23:09:20.297Z,22.60
2019-05-18T23:11:51.895Z,22.56
2019-05-18T23:14:23.004Z,22.53
2019-05-18T23:16:54.164Z,22.50
2019-05-18T23:19:25.234Z,22.49
2019-05-18T23:21:56.457Z,22.46
2019-05-18T23:24:27.513Z,22.42
2019-05-18T23:26:58.763Z,22.38
2019-05-18T23:29:29.972Z,22.35
2019-05-18T23:32:01.245Z,22.33
2019-05-18T23:34:32.436Z,22.31
2019-05-18T23:37:03.427Z,22.28
2019-05-18T23:39:34.632Z,22.26
2019-05-18T23:42:05.652Z,22.23
2019-05-18T23:44:36.821Z,22.20
2019-05-18T23:47:07.953Z,22.18
2019-05-18T23:49:39.216Z,22.14
2019-05-18T23:52:10.566Z,22.10
2019-05-18T23:54:41.679Z,22.04
2019-05-18T23:57:12.825Z,22.01
2019-05-18T23:59:43.938Z,21.96
